Terminal Aerodrome Forecast
Issued by NWS Denver/Boulder, CO

Home | Current Version | Previous Version | Text Only | Print | Product List | Glossary On
Versions: 1 2 3 4 5 6 7 8 9 10 11 12 13 14 15 16 17 18 19 20 21 22 23 24 25 26 27 28 29 30 31 32 33 34 35 36 37 38 39 40 41 42 43 44 45 46 47 48 49 50
053
FTUS45 KBOU 041139
TAFDEN
TAF
KDEN 041139Z 0412/0518 20013KT P6SM SKC
     FM041700 18008KT P6SM BKN220
     FM042100 15007KT P6SM SCT120 BKN200
     FM050000 11006KT P6SM FEW070 BKN110 BKN150
     FM050200 VRB05KT P6SM VCSH BKN070 OVC100 PROB30 0502/0506 -SHSN
      BKN050
     FM050600 26008KT P6SM VCSH SCT060 BKN100
     FM050900 29007KT P6SM FEW060 SCT100
     FM051400 22008KT P6SM SCT060 SCT100=

USA.gov is the U.S. government's official web portal to all federal, state and local government web resources and services.